Stations météo

réclame
Mon MeteoGroup
Monte Settepani, Italie (16111): Température de l'air & dewpoint: 05.12.2017 03:00:00 - 11.12.2017 03:00:00 (CET)Monte Settepani, Italie (16111): Vitesse du vent: 05.12.2017 03:00:00 - 11.12.2017 03:00:00 (CET)Monte Settepani, Italie (16111): Direction du vent: 05.12.2017 03:00:00 - 11.12.2017 03:00:00 (CET)Monte Settepani, Italie (16111): Quantités de précipitations: 05.12.2017 03:00:00 - 11.12.2017 03:00:00 (CET)
Date & Time tt [°C] td [°C] ff [km/h] ff [knt] dd rr [mm]
11.12.2017 03:00:00 - - - - - -
11.12.2017 02:00:00 1,1 1,1 24 13 S -
11.12.2017 01:00:00 0,9 0,9 31 17 SW -
11.12.2017 00:00:00 0,9 0,9 18 10 SSE -
10.12.2017 23:00:00 1,5 1,5 31 17 SSW -
10.12.2017 22:00:00 0,7 0,7 28 15 SSW -
10.12.2017 21:00:00 0,3 0,3 28 15 SW -
10.12.2017 20:00:00 0,0 0,0 24 13 SW -
10.12.2017 19:00:00 -0,6 -0,6 22 12 S -
10.12.2017 18:00:00 -0,8 -0,8 21 11 SW -
10.12.2017 17:00:00 -2,5 -2,5 16 9 WSW -
10.12.2017 16:00:00 -3,6 -3,6 11 6 SSW -
10.12.2017 15:00:00 -4,0 -4,0 9 5 SW -
10.12.2017 14:00:00 -0,4 -0,4 26 14 SW -
10.12.2017 13:00:00 -1,0 -1,0 29 16 SSW 0,0
10.12.2017 12:00:00 -1,8 -2,4 28 15 SSW -
10.12.2017 11:00:00 -3,5 -8,4 18 10 SSW -
10.12.2017 10:00:00 -4,2 -12,7 4 2 WSW -
10.12.2017 09:00:00 -3,8 -6,8 2 1 SSW -
10.12.2017 08:00:00 -4,3 -7,0 8 4 SE -
10.12.2017 07:00:00 -4,2 -6,5 16 9 S 0,0
10.12.2017 06:00:00 -4,0 -5,3 18 10 S -
10.12.2017 05:00:00 -3,7 -5,0 24 13 S -
10.12.2017 04:00:00 -3,8 -5,4 26 14 SSW -
10.12.2017 03:00:00 -3,8 -5,5 26 14 SSW -
10.12.2017 02:00:00 -4,4 -5,4 28 15 S -
10.12.2017 01:00:00 -4,5 -7,1 29 16 S 0,0
10.12.2017 00:00:00 -3,9 -11,5 26 14 SSW -
09.12.2017 23:00:00 -4,3 -15,7 22 12 S -
09.12.2017 22:00:00 -4,2 -14,2 13 7 SSW -
09.12.2017 21:00:00 -4,2 -19,3 11 6 SSW -
09.12.2017 20:00:00 -3,8 -21,0 9 5 N -
09.12.2017 19:00:00 -4,3 -19,8 13 7 W 0,0
09.12.2017 18:00:00 -4,2 -19,3 9 5 WSW -
09.12.2017 17:00:00 -3,8 -19,7 16 9 NNW -
09.12.2017 16:00:00 -3,2 -18,8 9 5 W -
09.12.2017 15:00:00 -2,5 -18,2 11 6 N -
09.12.2017 14:00:00 -2,3 -17,2 11 6 N -
09.12.2017 13:00:00 -2,7 -17,2 18 10 N 0,0
09.12.2017 12:00:00 -3,0 -15,7 24 13 W -
09.12.2017 11:00:00 -3,7 -16,7 26 14 NNE -
09.12.2017 10:00:00 -4,0 -17,0 31 17 NNE -
09.12.2017 09:00:00 -4,6 -16,5 29 16 ENE -
09.12.2017 08:00:00 -4,9 -15,9 37 20 NE -
09.12.2017 07:00:00 -4,6 -15,9 29 16 NNW 0,0
09.12.2017 06:00:00 -4,1 -16,4 22 12 N -
09.12.2017 05:00:00 -3,8 -15,2 16 9 NNW -
09.12.2017 04:00:00 -3,5 -13,8 13 7 SSW -
09.12.2017 03:00:00 -3,2 -12,0 13 7 NNW -
09.12.2017 02:00:00 -3,2 -11,5 13 7 SSE -
09.12.2017 01:00:00 -2,1 -11,0 15 8 NW 0,0
09.12.2017 00:00:00 -1,7 -7,3 13 7 W -
08.12.2017 23:00:00 -0,9 -7,1 16 9 ENE -
08.12.2017 22:00:00 0,1 -6,2 21 11 W -
08.12.2017 21:00:00 0,8 -4,1 18 10 NW -
08.12.2017 20:00:00 1,6 -3,4 26 14 NNE -
08.12.2017 19:00:00 2,0 -2,6 13 7 N 0,0
08.12.2017 18:00:00 4,1 -0,4 11 6 NW -
08.12.2017 17:00:00 5,9 -1,8 13 7 WSW -
08.12.2017 16:00:00 5,8 2,2 8 4 SW -
08.12.2017 15:00:00 5,1 1,9 15 8 SSW -
08.12.2017 14:00:00 4,8 1,9 16 9 SSW -
08.12.2017 13:00:00 4,3 1,5 21 11 SSW 0,0
08.12.2017 12:00:00 4,1 0,6 15 8 SSW -
08.12.2017 11:00:00 3,0 0,9 22 12 SW -
08.12.2017 10:00:00 1,6 -1,2 24 13 SSW -
08.12.2017 09:00:00 1,9 -1,6 22 12 SSW -
08.12.2017 08:00:00 2,2 -2,8 16 9 SSW -
08.12.2017 07:00:00 2,2 -4,0 18 10 SW 0,0
08.12.2017 06:00:00 2,1 -4,7 22 12 SSW -
08.12.2017 05:00:00 1,9 -4,9 24 13 SSW -
08.12.2017 04:00:00 1,7 -5,3 22 12 SSW -
08.12.2017 03:00:00 1,6 -5,0 22 12 S -
08.12.2017 02:00:00 1,7 -4,5 26 14 SSW -
08.12.2017 01:00:00 1,4 -3,2 21 11 S 0,0
08.12.2017 00:00:00 1,1 -1,3 28 15 SSW -
07.12.2017 23:00:00 0,5 0,2 18 10 SW -
07.12.2017 22:00:00 0,5 0,5 11 6 S -
07.12.2017 21:00:00 0,7 0,7 9 5 S -
07.12.2017 20:00:00 0,9 0,9 11 6 S -
07.12.2017 19:00:00 1,2 0,9 11 6 SSW 0,0
07.12.2017 18:00:00 1,6 1,3 11 6 SSW -
07.12.2017 17:00:00 2,0 0,2 4 2 SSW -
07.12.2017 16:00:00 4,1 1,4 8 4 SSW -
07.12.2017 15:00:00 4,3 1,5 9 5 S -
07.12.2017 14:00:00 4,3 1,8 9 5 SSE -
07.12.2017 13:00:00 3,8 1,6 9 5 SSW 0,0
07.12.2017 12:00:00 3,2 1,4 8 4 S -
07.12.2017 11:00:00 3,5 1,5 5 3 S -
07.12.2017 10:00:00 2,7 -0,1 4 2 SE -
07.12.2017 09:00:00 2,6 -1,4 0 0 N -
07.12.2017 08:00:00 0,8 -7,3 2 1 NNW -
07.12.2017 07:00:00 0,8 -5,3 4 2 NNW 0,0
07.12.2017 06:00:00 0,9 -2,6 5 3 SW -
07.12.2017 05:00:00 0,0 -1,2 21 11 SSW -
07.12.2017 04:00:00 0,0 0,0 22 12 SSW -
07.12.2017 03:00:00 -0,5 -0,5 21 11 SSW -
07.12.2017 02:00:00 -0,3 -0,3 18 10 SSW -
07.12.2017 01:00:00 -0,3 -0,3 22 12 S 0,0
07.12.2017 00:00:00 -0,1 -0,1 22 12 S -
06.12.2017 23:00:00 0,1 0,1 26 14 S -
06.12.2017 22:00:00 0,5 0,5 22 12 S -
06.12.2017 21:00:00 0,8 0,8 21 11 S -
06.12.2017 20:00:00 0,7 0,7 22 12 S -
06.12.2017 19:00:00 0,4 0,4 28 15 S 0,0
06.12.2017 18:00:00 0,2 0,2 28 15 S -
06.12.2017 17:00:00 0,5 0,5 26 14 S -
06.12.2017 16:00:00 0,4 0,4 29 16 S -
06.12.2017 15:00:00 0,8 0,8 24 13 S -
06.12.2017 14:00:00 0,9 0,9 29 16 S -
06.12.2017 13:00:00 1,0 1,0 29 16 S 0,0
06.12.2017 12:00:00 0,7 0,7 28 15 S -
06.12.2017 11:00:00 1,0 1,0 29 16 SSW -
06.12.2017 10:00:00 0,6 0,6 28 15 SSW -
06.12.2017 09:00:00 0,6 0,6 34 18 SSW -
06.12.2017 08:00:00 0,1 0,1 29 16 S -
06.12.2017 07:00:00 0,1 -0,9 24 13 SSW 0,0
06.12.2017 06:00:00 0,2 -0,8 22 12 SSW -
06.12.2017 05:00:00 1,7 -2,3 26 14 SW -
06.12.2017 04:00:00 1,5 -5,1 24 13 SSW -
06.12.2017 03:00:00 1,4 -5,2 16 9 SSW -
06.12.2017 02:00:00 2,4 -6,6 8 4 SSW -
06.12.2017 01:00:00 1,9 -5,6 16 9 SSW 0,0
06.12.2017 00:00:00 2,4 -6,8 13 7 S -
05.12.2017 23:00:00 2,1 -4,7 15 8 SSW -
05.12.2017 22:00:00 2,7 -5,3 21 11 SW -
05.12.2017 21:00:00 2,4 -2,4 18 10 S -
05.12.2017 20:00:00 2,0 -0,6 21 11 SW -
05.12.2017 19:00:00 1,6 1,0 21 11 SSW 0,0
05.12.2017 18:00:00 1,4 1,4 18 10 SSW -
05.12.2017 17:00:00 1,5 1,5 18 10 S -
05.12.2017 16:00:00 2,7 2,6 15 8 SSW -
05.12.2017 15:00:00 5,4 3,0 5 3 SSW -
05.12.2017 14:00:00 7,0 2,6 5 3 SW -
05.12.2017 13:00:00 8,0 2,8 4 2 S 0,0
05.12.2017 12:00:00 8,2 -2,6 8 4 SSW -
05.12.2017 11:00:00 7,2 -8,5 13 7 SSW -
05.12.2017 10:00:00 6,2 -9,8 16 9 SSW -
05.12.2017 09:00:00 4,7 -11,1 21 11 S -
05.12.2017 08:00:00 3,6 -10,6 18 10 S -
05.12.2017 07:00:00 3,4 -11,1 15 8 S 0,0
05.12.2017 06:00:00 4,1 -9,8 11 6 S -
05.12.2017 05:00:00 4,0 -10,6 9 5 SSE -
05.12.2017 04:00:00 4,3 -10,3 8 4 SE -
05.12.2017 03:00:00 4,4 -10,2 2 1 SE -

tt = Température de l'air
td = dewpoint
ff = Vitesse du vent
dd = Direction du vent
rr = Quantités de précipitations

stations d'obs. à proximité